createdAt,value
2023-04-19T00:00:12.367Z,100457.19
2023-04-19T00:03:16.022Z,100460.63
2023-04-19T00:06:21.176Z,100461.56
2023-04-19T00:09:24.151Z,100464.03
2023-04-19T00:12:27.193Z,100461.69
2023-04-19T00:15:30.251Z,100455.03
2023-04-19T00:18:33.808Z,100449.19
2023-04-19T00:21:37.225Z,100449.13
2023-04-19T00:24:40.405Z,100455.75
2023-04-19T00:27:43.392Z,100447.22
2023-04-19T00:30:46.661Z,100446.06
2023-04-19T00:33:49.895Z,100440.69
2023-04-19T00:36:53.132Z,100433.66
2023-04-19T00:39:56.548Z,100437.50
2023-04-19T00:42:59.919Z,100431.72
2023-04-19T00:46:03.473Z,100420.31
2023-04-19T00:49:07.047Z,100427.34
2023-04-19T00:52:10.825Z,100422.16
2023-04-19T00:55:14.823Z,100419.97
2023-04-19T00:58:19.071Z,100411.88
2023-04-19T01:01:22.725Z,100410.25
2023-04-19T01:04:26.655Z,100404.91
2023-04-19T01:07:29.923Z,100400.53
2023-04-19T01:10:32.971Z,100404.00
2023-04-19T01:13:36.135Z,100397.47
2023-04-19T01:16:39.423Z,100389.75
2023-04-19T01:19:42.876Z,100392.19
2023-04-19T01:22:46.397Z,100391.00
2023-04-19T01:25:50.395Z,100391.06
2023-04-19T01:28:53.555Z,100377.94
2023-04-19T01:31:56.941Z,100378.19
2023-04-19T01:35:02.871Z,100379.78
2023-04-19T01:38:06.668Z,100368.75
2023-04-19T01:41:10.216Z,100373.94
2023-04-19T01:44:13.728Z,100372.84
2023-04-19T01:47:17.026Z,100367.13
2023-04-19T01:50:20.351Z,100362.53
2023-04-19T01:53:23.757Z,100362.94
2023-04-19T01:56:26.765Z,100360.34
2023-04-19T01:59:30.138Z,100352.03
2023-04-19T02:02:33.220Z,100362.50
2023-04-19T02:05:39.712Z,100361.72
2023-04-19T02:08:43.430Z,100357.16
2023-04-19T02:11:46.781Z,100360.19
2023-04-19T02:14:50.043Z,100353.53
2023-04-19T02:17:53.145Z,100348.59
2023-04-19T02:20:56.861Z,100355.81
2023-04-19T02:23:59.881Z,100351.72
2023-04-19T02:27:03.233Z,100352.59
2023-04-19T02:30:09.692Z,100343.31
2023-04-19T02:33:13.024Z,100345.53
2023-04-19T02:36:16.081Z,100344.06
2023-04-19T02:39:19.056Z,100340.59
2023-04-19T02:42:21.962Z,100342.69
2023-04-19T02:45:25.415Z,100335.41
2023-04-19T02:48:31.257Z,100335.06
2023-04-19T02:51:34.396Z,100333.91
2023-04-19T02:54:37.705Z,100335.94
2023-04-19T02:57:41.372Z,100325.25
2023-04-19T03:00:46.465Z,100328.78
2023-04-19T03:03:52.645Z,100331.56
2023-04-19T03:06:55.889Z,100321.97
2023-04-19T03:09:59.721Z,100311.47
2023-04-19T03:13:02.691Z,100316.03
2023-04-19T03:16:07.586Z,100310.59
2023-04-19T03:19:11.030Z,100310.19
2023-04-19T03:22:21.578Z,100313.09
2023-04-19T03:25:24.982Z,100309.59
2023-04-19T03:28:36.271Z,100312.34
2023-04-19T03:31:58.071Z,100308.97
2023-04-19T03:35:01.430Z,100300.41
2023-04-19T03:38:05.719Z,100303.88
2023-04-19T03:41:19.131Z,100304.59
2023-04-19T03:44:23.374Z,100296.75
2023-04-19T03:47:26.563Z,100300.97
2023-04-19T03:50:33.116Z,100293.59
2023-04-19T03:53:37.036Z,100302.47
2023-04-19T03:56:40.416Z,100300.13
2023-04-19T03:59:44.304Z,100299.69
2023-04-19T04:02:47.895Z,100300.09
2023-04-19T04:05:50.936Z,100293.88
2023-04-19T04:08:54.344Z,100294.94
2023-04-19T04:11:57.881Z,100297.22
2023-04-19T04:15:01.117Z,100294.09
2023-04-19T04:18:08.495Z,100301.81
2023-04-19T04:21:12.323Z,100300.22
2023-04-19T04:24:20.389Z,100301.81
2023-04-19T04:27:52.536Z,100293.00
2023-04-19T04:31:00.478Z,100292.13
2023-04-19T04:34:09.388Z,100294.88
2023-04-19T04:37:18.117Z,100294.28
2023-04-19T04:40:22.640Z,100292.63
2023-04-19T04:43:29.348Z,100291.72
2023-04-19T04:46:32.645Z,100289.19
2023-04-19T04:49:36.583Z,100291.50
2023-04-19T04:52:40.282Z,100285.22
2023-04-19T04:55:47.862Z,100286.16
2023-04-19T04:58:51.204Z,100291.44
2023-04-19T05:02:03.266Z,100292.41
2023-04-19T05:05:06.800Z,100280.28
2023-04-19T05:08:09.788Z,100280.88
2023-04-19T05:11:15.409Z,100274.09
2023-04-19T05:14:19.773Z,100279.88
2023-04-19T05:17:23.105Z,100277.66
2023-04-19T05:20:26.592Z,100286.97
2023-04-19T05:23:38.609Z,100278.47
2023-04-19T05:26:42.221Z,100284.69
2023-04-19T05:29:46.257Z,100273.34
2023-04-19T05:32:49.461Z,100270.72
2023-04-19T05:35:54.510Z,100275.66
2023-04-19T05:38:58.027Z,100276.44
2023-04-19T05:42:01.978Z,100270.91
2023-04-19T05:45:07.488Z,100273.56
2023-04-19T05:48:11.068Z,100274.09
2023-04-19T05:51:38.976Z,100272.78
2023-04-19T05:54:46.274Z,100278.84
2023-04-19T05:57:49.692Z,100277.38
2023-04-19T06:00:52.971Z,100271.13
2023-04-19T06:03:58.326Z,100271.59
2023-04-19T06:07:03.106Z,100285.97
2023-04-19T06:10:08.277Z,100276.19
2023-04-19T06:13:11.977Z,100275.41
2023-04-19T06:16:15.423Z,100280.00
2023-04-19T06:19:18.537Z,100278.06
2023-04-19T06:22:22.716Z,100281.53
2023-04-19T06:25:26.952Z,100272.34
2023-04-19T06:28:29.861Z,100273.78
2023-04-19T06:31:34.108Z,100271.78
2023-04-19T06:34:37.337Z,100267.56
2023-04-19T06:37:40.948Z,100260.97
2023-04-19T06:40:44.278Z,100255.28
2023-04-19T06:43:48.893Z,100265.63
2023-04-19T06:46:52.486Z,100267.00
2023-04-19T06:49:57.093Z,100268.84
2023-04-19T06:53:01.183Z,100267.44
2023-04-19T06:56:06.282Z,100261.94
2023-04-19T06:59:09.856Z,100275.75
2023-04-19T07:02:13.534Z,100273.63
2023-04-19T07:05:17.590Z,100268.09
2023-04-19T07:08:20.699Z,100269.00
2023-04-19T07:11:25.167Z,100267.28
2023-04-19T07:14:29.451Z,100270.03
2023-04-19T07:17:39.826Z,100261.34
2023-04-19T07:20:46.946Z,100268.06
2023-04-19T07:23:50.376Z,100266.53
2023-04-19T07:26:54.100Z,100259.34
2023-04-19T07:29:57.449Z,100255.78
2023-04-19T07:33:00.995Z,100257.84
2023-04-19T07:36:04.288Z,100248.69
2023-04-19T07:39:08.302Z,100251.28
2023-04-19T07:42:12.040Z,100252.22
2023-04-19T07:45:15.517Z,100242.31
2023-04-19T07:48:19.233Z,100242.91
2023-04-19T07:51:24.787Z,100243.22
2023-04-19T07:54:28.330Z,100244.59
2023-04-19T07:57:31.853Z,100247.19
2023-04-19T08:00:39.637Z,100240.06
2023-04-19T08:03:47.496Z,100246.78
2023-04-19T08:06:53.295Z,100246.41
2023-04-19T08:09:56.960Z,100250.72
2023-04-19T08:13:05.373Z,100250.47
2023-04-19T08:19:16.678Z,100259.41
2023-04-19T08:22:21.822Z,100268.72
2023-04-19T08:25:28.781Z,100264.34
2023-04-19T08:28:32.120Z,100260.44
2023-04-19T08:31:39.696Z,100269.91
2023-04-19T08:34:43.984Z,100267.63
2023-04-19T08:37:48.897Z,100261.94
2023-04-19T08:40:53.302Z,100262.84
2023-04-19T08:43:59.489Z,100257.06
2023-04-19T08:47:03.170Z,100256.78
2023-04-19T08:50:20.578Z,100252.50
2023-04-19T08:53:36.071Z,100251.56
2023-04-19T08:56:39.926Z,100256.53
2023-04-19T08:59:45.855Z,100243.41
2023-04-19T09:02:52.484Z,100252.75
2023-04-19T09:05:57.261Z,100241.53
2023-04-19T09:12:28.067Z,100244.00
2023-04-19T09:15:39.630Z,100234.13
2023-04-19T09:19:02.435Z,100242.88
2023-04-19T09:22:23.980Z,100231.84
2023-04-19T09:28:33.246Z,100237.75
2023-04-19T09:31:50.551Z,100224.72
2023-04-19T09:34:59.930Z,100229.78
2023-04-19T09:38:06.855Z,100234.94
2023-04-19T09:41:11.540Z,100227.06
2023-04-19T09:47:26.857Z,100229.00
2023-04-19T09:50:31.901Z,100228.09
2023-04-19T09:53:36.951Z,100233.34
2023-04-19T09:56:41.097Z,100229.75
2023-04-19T09:59:44.910Z,100231.19
2023-04-19T10:02:56.043Z,100229.91
2023-04-19T10:06:04.360Z,100226.16
2023-04-19T10:09:14.551Z,100229.13
2023-04-19T10:12:38.984Z,100232.63
2023-04-19T10:15:52.694Z,100219.50
2023-04-19T10:19:02.885Z,100217.56
2023-04-19T10:22:08.053Z,100210.84
2023-04-19T10:25:13.925Z,100213.41
2023-04-19T10:28:18.036Z,100208.63
2023-04-19T10:31:23.773Z,100210.88
2023-04-19T10:34:40.541Z,100210.09
2023-04-19T10:38:03.630Z,100207.38
2023-04-19T10:41:15.521Z,100202.16
2023-04-19T10:44:19.869Z,100204.03
2023-04-19T10:47:45.495Z,100205.22
2023-04-19T10:54:33.527Z,100189.66
2023-04-19T10:58:05.537Z,100196.47
2023-04-19T11:01:45.779Z,100192.06
2023-04-19T11:04:49.075Z,100187.78
2023-04-19T11:07:52.197Z,100188.56
2023-04-19T11:10:57.719Z,100180.00
2023-04-19T11:14:03.092Z,100180.34
2023-04-19T11:17:18.531Z,100183.13
2023-04-19T11:20:24.600Z,100181.00
2023-04-19T11:23:27.764Z,100174.00
2023-04-19T11:26:31.502Z,100178.41
2023-04-19T11:29:34.464Z,100174.66
2023-04-19T11:32:37.775Z,100176.16
2023-04-19T11:35:41.639Z,100169.28
2023-04-19T11:38:48.790Z,100169.69
2023-04-19T11:41:53.165Z,100168.38
2023-04-19T11:44:58.495Z,100162.59
2023-04-19T11:48:02.114Z,100171.16
2023-04-19T11:51:08.637Z,100165.63
2023-04-19T11:54:15.014Z,100163.69
2023-04-19T11:57:28.885Z,100161.75
2023-04-19T12:00:32.352Z,100155.94
2023-04-19T12:03:58.987Z,100161.66
2023-04-19T12:07:03.754Z,100167.13
2023-04-19T12:10:11.818Z,100167.75
2023-04-19T12:13:18.977Z,100160.88
2023-04-19T12:16:29.095Z,100168.19
2023-04-19T12:19:37.333Z,100157.31
2023-04-19T12:22:40.786Z,100158.75
2023-04-19T12:25:47.625Z,100157.56
2023-04-19T12:28:50.664Z,100153.66
2023-04-19T12:31:54.141Z,100157.00
2023-04-19T12:34:57.603Z,100157.88
2023-04-19T12:38:01.250Z,100154.91
2023-04-19T12:41:04.804Z,100166.81
2023-04-19T12:44:08.765Z,100158.13
2023-04-19T12:47:12.063Z,100160.97
2023-04-19T12:50:16.330Z,100162.63
2023-04-19T12:53:19.454Z,100172.00
2023-04-19T12:56:23.251Z,100167.28
2023-04-19T12:59:28.175Z,100165.63
2023-04-19T13:02:31.351Z,100165.06
2023-04-19T13:05:34.729Z,100160.28
2023-04-19T13:08:45.538Z,100155.75
2023-04-19T13:11:51.239Z,100157.59
2023-04-19T13:14:54.946Z,100161.56
2023-04-19T13:17:58.232Z,100160.97
2023-04-19T13:21:01.221Z,100153.66
2023-04-19T13:24:04.356Z,100162.56
2023-04-19T13:27:08.917Z,100163.84
2023-04-19T13:30:13.112Z,100162.34
2023-04-19T13:33:16.384Z,100158.09
2023-04-19T13:36:20.132Z,100157.28
2023-04-19T13:39:26.088Z,100163.66
2023-04-19T13:42:29.788Z,100162.47
2023-04-19T13:45:33.260Z,100153.53
2023-04-19T13:48:36.242Z,100149.28
2023-04-19T13:51:49.539Z,100149.97
2023-04-19T13:54:53.362Z,100138.53
2023-04-19T13:57:56.177Z,100137.34
2023-04-19T14:00:59.529Z,100135.44
2023-04-19T14:04:03.223Z,100124.38
2023-04-19T14:07:07.366Z,100133.13
2023-04-19T14:10:11.201Z,100129.66
2023-04-19T14:13:15.386Z,100118.72
2023-04-19T14:16:18.435Z,100114.22
2023-04-19T14:19:22.013Z,100111.44
2023-04-19T14:22:25.225Z,100106.28
2023-04-19T14:25:28.352Z,100113.25
2023-04-19T14:28:31.581Z,100110.50
2023-04-19T14:31:34.903Z,100117.84
2023-04-19T14:34:37.960Z,100115.03
2023-04-19T14:37:41.017Z,100117.63
2023-04-19T14:40:44.330Z,100119.53
2023-04-19T14:43:47.786Z,100116.78
2023-04-19T14:46:51.228Z,100115.06
2023-04-19T14:49:54.291Z,100114.50
2023-04-19T14:52:57.475Z,100121.59
2023-04-19T14:56:03.940Z,100119.97
2023-04-19T14:59:08.253Z,100121.31
2023-04-19T15:02:13.630Z,100123.50
2023-04-19T15:05:17.358Z,100119.59
2023-04-19T15:08:30.033Z,100112.72
2023-04-19T15:11:34.664Z,100130.59
2023-04-19T15:14:38.853Z,100130.75
2023-04-19T15:17:43.448Z,100127.50
2023-04-19T15:20:46.598Z,100123.44
2023-04-19T15:23:49.908Z,100125.63
2023-04-19T15:26:52.992Z,100127.75
2023-04-19T15:29:56.093Z,100130.75
2023-04-19T15:32:59.637Z,100132.88
2023-04-19T15:36:02.797Z,100137.16
2023-04-19T15:39:06.051Z,100142.44
2023-04-19T15:42:09.541Z,100144.72
2023-04-19T15:45:12.840Z,100149.91
2023-04-19T15:48:16.197Z,100144.72
2023-04-19T15:51:19.052Z,100141.28
2023-04-19T15:54:23.176Z,100142.81
2023-04-19T15:57:26.591Z,100146.25
2023-04-19T16:00:30.389Z,100153.94
2023-04-19T16:03:34.158Z,100156.59
2023-04-19T16:06:37.504Z,100155.81
2023-04-19T16:09:40.851Z,100156.94
2023-04-19T16:12:44.308Z,100155.31
2023-04-19T16:15:47.607Z,100157.63
2023-04-19T16:18:51.225Z,100153.00
2023-04-19T16:21:54.463Z,100148.75
2023-04-19T16:24:57.301Z,100150.84
2023-04-19T16:28:01.008Z,100161.78
2023-04-19T16:31:04.255Z,100162.66
2023-04-19T16:34:08.276Z,100158.81
2023-04-19T16:37:11.559Z,100159.84
2023-04-19T16:40:15.163Z,100163.63
2023-04-19T16:43:20.882Z,100158.63
2023-04-19T16:46:23.977Z,100156.88
2023-04-19T16:49:26.868Z,100162.97
2023-04-19T16:52:32.822Z,100162.78
2023-04-19T16:55:36.549Z,100165.81
2023-04-19T16:58:40.274Z,100170.09
2023-04-19T17:01:44.487Z,100174.00
2023-04-19T17:04:48.087Z,100171.03
2023-04-19T17:07:52.564Z,100176.47
2023-04-19T17:10:56.291Z,100186.94
2023-04-19T17:13:59.717Z,100191.13
2023-04-19T17:17:03.015Z,100189.28
2023-04-19T17:20:06.559Z,100193.00
2023-04-19T17:23:09.566Z,100191.50
2023-04-19T17:26:12.685Z,100193.91
2023-04-19T17:29:16.086Z,100193.59
2023-04-19T17:32:19.408Z,100196.06
2023-04-19T17:35:22.896Z,100202.38
2023-04-19T17:38:25.997Z,100197.00
2023-04-19T17:41:29.125Z,100204.59
2023-04-19T17:44:32.077Z,100199.72
2023-04-19T17:47:35.488Z,100207.22
2023-04-19T17:50:38.771Z,100223.81
2023-04-19T17:53:42.566Z,100213.34
2023-04-19T17:56:45.892Z,100230.34
2023-04-19T17:59:48.871Z,100236.91
2023-04-19T18:02:52.268Z,100237.91
2023-04-19T18:05:55.457Z,100244.69
2023-04-19T18:08:59.280Z,100250.25
2023-04-19T18:12:02.978Z,100256.19
2023-04-19T18:15:06.842Z,100259.41
2023-04-19T18:18:09.958Z,100259.25
2023-04-19T18:21:13.029Z,100257.53
2023-04-19T18:24:16.444Z,100260.19
2023-04-19T18:27:19.739Z,100272.81
2023-04-19T18:30:22.819Z,100268.84
2023-04-19T18:33:26.512Z,100270.28
2023-04-19T18:36:29.886Z,100281.22
2023-04-19T18:39:33.484Z,100288.56
2023-04-19T18:42:36.810Z,100286.19
2023-04-19T18:45:39.854Z,100290.47
2023-04-19T18:48:42.852Z,100289.28
2023-04-19T18:51:47.313Z,100290.19
2023-04-19T18:54:50.747Z,100294.16
2023-04-19T18:57:54.480Z,100295.09
2023-04-19T19:00:58.691Z,100299.69
2023-04-19T19:07:27.296Z,100297.50
2023-04-19T19:10:54.216Z,100303.06
2023-04-19T19:13:54.608Z,100301.97
2023-04-19T19:16:58.948Z,100300.91
2023-04-19T19:20:02.251Z,100305.78
2023-04-19T19:23:06.144Z,100302.72
2023-04-19T19:26:12.525Z,100308.16
2023-04-19T19:29:17.843Z,100310.59
2023-04-19T19:32:21.819Z,100316.31
2023-04-19T19:35:25.264Z,100316.06
2023-04-19T19:38:28.293Z,100320.25
2023-04-19T19:42:03.390Z,100313.50
2023-04-19T19:44:55.879Z,100313.88
2023-04-19T19:48:00.165Z,100319.00
2023-04-19T19:51:31.388Z,100312.47
2023-04-19T19:54:27.684Z,100312.97
2023-04-19T20:00:46.335Z,100313.78
2023-04-19T20:03:52.051Z,100315.03
2023-04-19T20:10:01.501Z,100316.25
2023-04-19T20:13:06.410Z,100310.44
2023-04-19T20:16:10.251Z,100317.50
2023-04-19T20:19:14.023Z,100312.50
2023-04-19T20:22:17.690Z,100313.22
2023-04-19T20:25:21.043Z,100320.41
2023-04-19T20:28:24.556Z,100309.91
2023-04-19T20:31:28.097Z,100313.00
2023-04-19T20:34:31.401Z,100314.66
2023-04-19T20:37:37.743Z,100325.06
2023-04-19T20:40:41.444Z,100324.28
2023-04-19T20:43:44.819Z,100326.03
2023-04-19T20:46:49.273Z,100325.63
2023-04-19T20:49:53.066Z,100335.06
2023-04-19T20:52:56.875Z,100325.09
2023-04-19T20:56:01.381Z,100334.53
2023-04-19T20:59:04.809Z,100326.81
2023-04-19T21:02:08.549Z,100330.66
2023-04-19T21:05:11.906Z,100339.06
2023-04-19T21:08:16.227Z,100329.94
2023-04-19T21:11:19.417Z,100330.59
2023-04-19T21:14:22.766Z,100329.13
2023-04-19T21:17:26.301Z,100340.66
2023-04-19T21:20:29.649Z,100334.88
2023-04-19T21:23:32.902Z,100331.06
2023-04-19T21:26:36.388Z,100347.47
2023-04-19T21:29:39.957Z,100345.59
2023-04-19T21:32:42.987Z,100344.50
2023-04-19T21:35:46.312Z,100343.41
2023-04-19T21:38:49.416Z,100354.38
2023-04-19T21:41:52.536Z,100344.88
2023-04-19T21:44:55.769Z,100346.78
2023-04-19T21:47:59.347Z,100341.44
2023-04-19T21:51:02.663Z,100345.72
2023-04-19T21:54:06.181Z,100351.50
2023-04-19T21:57:09.172Z,100344.19
2023-04-19T22:00:13.924Z,100343.84
2023-04-19T22:03:17.502Z,100348.09
2023-04-19T22:06:22.114Z,100339.53
2023-04-19T22:09:28.759Z,100346.38
2023-04-19T22:12:34.061Z,100343.66
2023-04-19T22:15:38.405Z,100340.22
2023-04-19T22:18:41.910Z,100347.56
2023-04-19T22:21:47.073Z,100350.19
2023-04-19T22:24:57.420Z,100343.66
2023-04-19T22:28:00.870Z,100345.47
2023-04-19T22:31:04.243Z,100344.81
2023-04-19T22:34:07.279Z,100349.78
2023-04-19T22:37:10.636Z,100348.25
2023-04-19T22:40:13.971Z,100349.09
2023-04-19T22:43:17.132Z,100343.25
2023-04-19T22:46:20.427Z,100345.88
2023-04-19T22:49:24.237Z,100348.19
2023-04-19T22:52:27.944Z,100340.50
2023-04-19T22:55:31.024Z,100354.06
2023-04-19T22:58:34.259Z,100351.34
2023-04-19T23:01:37.595Z,100347.47
2023-04-19T23:04:41.121Z,100349.47
2023-04-19T23:07:45.381Z,100348.25
2023-04-19T23:10:51.155Z,100340.16
2023-04-19T23:13:54.198Z,100337.81
2023-04-19T23:16:57.722Z,100344.84
2023-04-19T23:20:00.759Z,100334.91
2023-04-19T23:23:05.328Z,100340.03
2023-04-19T23:26:08.198Z,100335.06
2023-04-19T23:29:11.177Z,100329.28
2023-04-19T23:32:14.630Z,100337.44
2023-04-19T23:35:18.188Z,100342.13
2023-04-19T23:38:21.154Z,100340.59
2023-04-19T23:41:24.246Z,100336.28
2023-04-19T23:44:27.443Z,100335.56
2023-04-19T23:47:30.775Z,100329.00
2023-04-19T23:50:33.882Z,100332.88
2023-04-19T23:53:38.732Z,100326.66
2023-04-19T23:56:41.839Z,100329.75
2023-04-19T23:59:45.081Z,100322.09
